Shamrock, Minnesota
Current Conditions -  °F | °C
As of 7:27 PM on Friday 19 Dec 2014 (Local Time) from KHZX Reporting Station
Overcast Overcast  
Wind Chill: 18°   Ceiling: 700
Heat Index: 27°   Visibility: 5mi
Dew Point: 23°   Wind: 8mph
Humidity: 86%   Direction: 150°SSE
Pressure: 30.15"   Gusts: NA
Location:  46.7232°N, 93.3159°W
Report Text: KHZX 200127Z AUTO 15007KT 5SM OVC007 M03/M05 A3015 RMK AO2
Loading
Personal Weather Stations






























Interactive Weather Map New forecast layout! Learn more

10-Day Weather Forecast

Advertisements
Track Severe Weather on mobile